Time;durP1;ratioP1;P1;durP2;ratioP2;P2;SDS_P1;SDS_P2;PMS_P1;PMS_P2;Temp;Humidity;BMP_temperature;BMP_pressure;BME280_temperature;BME280_humidity;BME280_pressure;Samples;Min_cycle;Max_cycle;Signal;HPM_P1;HPM_P2
2023/03/28 00:01:46;;;;;;;2.50;2.30;;;;;;;;;;5132073;27;20198;-79
2023/03/28 00:04:13;;;;;;;2.63;2.43;;;;;;;;;;5132564;27;20600;-79
2023/03/28 00:06:40;;;;;;;2.57;2.37;;;;;;;;;;5132498;27;20210;-79
2023/03/28 00:09:07;;;;;;;2.07;1.90;;;;;;;;;;5132044;27;20202;-79
2023/03/28 00:11:35;;;;;;;2.30;2.10;;;;;;;;;;5132413;27;20580;-79
2023/03/28 00:14:02;;;;;;;2.40;2.20;;;;;;;;;;5131934;27;20230;-80
2023/03/28 00:16:32;;;;;;;2.17;2.07;;;;;;;;;;5113434;28;20207;-80
2023/03/28 00:19:05;;;;;;;2.00;1.90;;;;;;;;;;5118608;27;20575;-79
2023/03/28 00:21:34;;;;;;;5.10;3.80;;;;;;;;;;5131287;27;20202;-82
2023/03/28 00:24:02;;;;;;;2.23;2.07;;;;;;;;;;5118173;27;20234;-79
2023/03/28 00:26:31;;;;;;;3.70;2.30;;;;;;;;;;5131841;27;20749;-80
2023/03/28 00:29:00;;;;;;;2.93;2.63;;;;;;;;;;5132693;27;20289;-78
2023/03/28 00:31:27;;;;;;;2.00;1.90;;;;;;;;;;5132098;27;20209;-78
2023/03/28 00:33:56;;;;;;;1.83;1.73;;;;;;;;;;5131493;27;20279;-79
2023/03/28 00:36:25;;;;;;;1.77;1.67;;;;;;;;;;5131435;27;20577;-79
2023/03/28 00:38:52;;;;;;;2.53;2.10;;;;;;;;;;5117439;27;20202;-80
2023/03/28 00:41:20;;;;;;;1.97;1.87;;;;;;;;;;5132078;27;20624;-79
2023/03/28 00:43:49;;;;;;;1.97;1.87;;;;;;;;;;5132090;27;20195;-79
2023/03/28 00:46:20;;;;;;;2.40;1.53;;;;;;;;;;5130893;27;20568;-79
2023/03/28 00:48:50;;;;;;;1.80;1.70;;;;;;;;;;5131338;27;20594;-79
2023/03/28 00:51:22;;;;;;;1.93;1.80;;;;;;;;;;5131074;27;20203;-79
2023/03/28 00:53:49;;;;;;;1.80;1.70;;;;;;;;;;5131899;27;20237;-79
2023/03/28 00:56:18;;;;;;;2.43;1.73;;;;;;;;;;5117257;27;20693;-79
2023/03/28 00:58:46;;;;;;;1.90;1.80;;;;;;;;;;5121181;27;20553;-79
2023/03/28 01:01:15;;;;;;;2.10;2.00;;;;;;;;;;5127996;28;20251;-79
2023/03/28 01:03:46;;;;;;;1.90;1.80;;;;;;;;;;5131388;28;20237;-79
2023/03/28 01:06:14;;;;;;;2.03;1.80;;;;;;;;;;5131401;28;20195;-79
2023/03/28 01:08:43;;;;;;;2.97;1.50;;;;;;;;;;5131194;28;20203;-79
2023/03/28 01:11:11;;;;;;;1.60;1.50;;;;;;;;;;5130755;28;20195;-79
2023/03/28 01:13:41;;;;;;;1.67;1.57;;;;;;;;;;5131839;28;20242;-79
2023/03/28 01:16:09;;;;;;;1.20;1.20;;;;;;;;;;5131050;28;20283;-79
2023/03/28 01:18:40;;;;;;;1.83;1.73;;;;;;;;;;5131656;28;20256;-79
2023/03/28 01:21:41;;;;;;;1.13;1.13;;;;;;;;;;5104422;28;20222;-79
2023/03/28 01:24:48;;;;;;;1.50;1.40;;;;;;;;;;5130968;28;20283;-79
2023/03/28 01:27:20;;;;;;;1.37;1.27;;;;;;;;;;5071223;28;20243;-79
2023/03/28 01:30:23;;;;;;;1.30;1.30;;;;;;;;;;5133103;27;20202;-78
2023/03/28 01:33:19;;;;;;;1.30;1.30;;;;;;;;;;5135171;27;20222;-80
2023/03/28 01:36:28;;;;;;;1.30;1.30;;;;;;;;;;5117534;27;20278;-79
2023/03/28 01:38:59;;;;;;;1.93;1.13;;;;;;;;;;5134861;27;20202;-79
2023/03/28 01:41:32;;;;;;;1.10;1.10;;;;;;;;;;5135166;27;20198;-79
2023/03/28 01:44:06;;;;;;;1.00;1.00;;;;;;;;;;5135449;27;20211;-79
2023/03/28 01:46:36;;;;;;;1.00;1.00;;;;;;;;;;5118770;27;20207;-81
2023/03/28 01:49:07;;;;;;;1.00;1.00;;;;;;;;;;5124301;27;20198;-80
2023/03/28 01:51:45;;;;;;;1.13;1.10;;;;;;;;;;5134664;27;20737;-79
2023/03/28 01:54:25;;;;;;;1.00;1.00;;;;;;;;;;5122563;27;20226;-80
2023/03/28 01:56:58;;;;;;;1.00;1.00;;;;;;;;;;5109388;27;20305;-79
2023/03/28 01:59:28;;;;;;;1.00;1.00;;;;;;;;;;5134834;27;20255;-79
2023/03/28 02:01:59;;;;;;;0.80;0.80;;;;;;;;;;5134419;27;20206;-79
2023/03/28 02:04:28;;;;;;;0.77;0.77;;;;;;;;;;5134379;27;20199;-79
2023/03/28 02:06:56;;;;;;;0.70;0.70;;;;;;;;;;5134967;27;20206;-79
2023/03/28 02:09:25;;;;;;;0.70;0.70;;;;;;;;;;5117127;27;20192;-79
2023/03/28 02:11:56;;;;;;;0.60;0.60;;;;;;;;;;5124875;27;20740;-79
2023/03/28 02:14:26;;;;;;;0.77;0.77;;;;;;;;;;5134881;27;20672;-79
2023/03/28 02:16:56;;;;;;;0.90;0.90;;;;;;;;;;5134209;27;20275;-79
2023/03/28 02:19:24;;;;;;;1.97;0.80;;;;;;;;;;5134353;27;20202;-79
2023/03/28 02:21:55;;;;;;;0.90;0.90;;;;;;;;;;5134200;27;20285;-79
2023/03/28 02:24:22;;;;;;;0.90;0.90;;;;;;;;;;5108596;27;20226;-79
2023/03/28 02:26:50;;;;;;;1.30;0.70;;;;;;;;;;5133484;27;20214;-79
2023/03/28 02:29:17;;;;;;;0.63;0.63;;;;;;;;;;5121889;27;20203;-80
2023/03/28 02:31:43;;;;;;;0.70;0.70;;;;;;;;;;5134043;27;20195;-79
2023/03/28 02:34:10;;;;;;;0.90;0.90;;;;;;;;;;5134037;27;20664;-80
2023/03/28 02:36:46;;;;;;;1.07;0.87;;;;;;;;;;5133773;27;20285;-80
2023/03/28 02:39:43;;;;;;;0.60;0.60;;;;;;;;;;5124517;27;20275;-79
2023/03/28 02:42:34;;;;;;;0.87;0.87;;;;;;;;;;5098510;28;20678;-79
2023/03/28 02:45:16;;;;;;;0.77;0.77;;;;;;;;;;5114854;27;20607;-79
2023/03/28 02:47:51;;;;;;;1.03;0.70;;;;;;;;;;5134165;27;20194;-80
2023/03/28 02:50:24;;;;;;;0.90;0.90;;;;;;;;;;5134031;27;20194;-80
2023/03/28 02:52:55;;;;;;;0.60;0.60;;;;;;;;;;5133520;27;20226;-80
2023/03/28 02:55:27;;;;;;;0.93;0.93;;;;;;;;;;5124939;27;20203;-80
2023/03/28 02:57:58;;;;;;;0.90;0.90;;;;;;;;;;5130314;27;20201;-80
2023/03/28 03:00:25;;;;;;;0.67;0.67;;;;;;;;;;5133617;27;20254;-80
2023/03/28 03:02:52;;;;;;;0.80;0.80;;;;;;;;;;5133032;27;20754;-80
2023/03/28 03:05:20;;;;;;;0.90;0.70;;;;;;;;;;5133694;27;20206;-80
2023/03/28 03:07:48;;;;;;;0.90;0.90;;;;;;;;;;5133126;27;20199;-80
2023/03/28 03:10:15;;;;;;;1.03;1.03;;;;;;;;;;5133265;27;20677;-80
2023/03/28 03:12:43;;;;;;;1.07;1.07;;;;;;;;;;5132620;27;20226;-80
2023/03/28 03:15:15;;;;;;;2.20;2.00;;;;;;;;;;5133039;27;20226;-80
2023/03/28 03:17:42;;;;;;;0.73;0.73;;;;;;;;;;5133047;27;20260;-80
2023/03/28 03:20:09;;;;;;;0.70;0.70;;;;;;;;;;5133171;27;20256;-80
2023/03/28 03:22:36;;;;;;;0.70;0.70;;;;;;;;;;5132606;27;20199;-80
2023/03/28 03:25:05;;;;;;;1.20;1.13;;;;;;;;;;5120409;27;20264;-80
2023/03/28 03:27:33;;;;;;;0.80;0.80;;;;;;;;;;5118909;27;20195;-80
2023/03/28 03:29:59;;;;;;;0.60;0.60;;;;;;;;;;5133116;27;20684;-79
2023/03/28 03:32:28;;;;;;;0.50;0.50;;;;;;;;;;5119145;27;20210;-79
2023/03/28 03:34:54;;;;;;;0.70;0.70;;;;;;;;;;5132042;27;20227;-80
2023/03/28 03:37:21;;;;;;;0.70;0.70;;;;;;;;;;5131855;27;20749;-79
2023/03/28 03:39:48;;;;;;;0.50;0.50;;;;;;;;;;5111576;27;20256;-76
2023/03/28 03:42:15;;;;;;;0.57;0.57;;;;;;;;;;5123175;27;20206;-78
2023/03/28 03:44:41;;;;;;;0.70;0.70;;;;;;;;;;5132470;27;20205;-78
2023/03/28 03:47:08;;;;;;;0.50;0.50;;;;;;;;;;5132458;27;20658;-78
2023/03/28 03:49:36;;;;;;;0.60;0.60;;;;;;;;;;5132965;27;20263;-78
2023/03/28 03:52:03;;;;;;;0.70;0.70;;;;;;;;;;5131458;27;20605;-78
2023/03/28 03:54:30;;;;;;;0.57;0.57;;;;;;;;;;5132740;27;20218;-78
2023/03/28 03:56:57;;;;;;;0.60;0.60;;;;;;;;;;5132442;27;20681;-78
2023/03/28 03:59:23;;;;;;;0.50;0.50;;;;;;;;;;5132019;27;20255;-78
2023/03/28 04:01:50;;;;;;;0.77;0.70;;;;;;;;;;5131995;27;20202;-78
2023/03/28 04:04:17;;;;;;;1.20;1.07;;;;;;;;;;5132262;27;20198;-77
2023/03/28 04:06:45;;;;;;;1.30;1.00;;;;;;;;;;5131894;27;20653;-79
2023/03/28 04:09:12;;;;;;;1.57;1.20;;;;;;;;;;5131825;27;20206;-79
2023/03/28 04:11:38;;;;;;;1.13;1.03;;;;;;;;;;5131268;27;20199;-79
2023/03/28 04:14:05;;;;;;;0.70;0.70;;;;;;;;;;5132638;27;20306;-78
2023/03/28 04:16:33;;;;;;;0.70;0.70;;;;;;;;;;5131880;27;20206;-79
2023/03/28 04:19:00;;;;;;;0.70;0.70;;;;;;;;;;5132403;27;20290;-79
2023/03/28 04:21:29;;;;;;;0.53;0.53;;;;;;;;;;5132044;27;20621;-79
2023/03/28 04:24:00;;;;;;;0.60;0.60;;;;;;;;;;5132018;27;20201;-79
2023/03/28 04:26:27;;;;;;;0.63;0.63;;;;;;;;;;5131647;27;20769;-79
2023/03/28 04:28:56;;;;;;;0.70;0.70;;;;;;;;;;5131523;27;20199;-80
2023/03/28 04:31:28;;;;;;;0.73;0.73;;;;;;;;;;5131827;27;20201;-79
2023/03/28 04:33:55;;;;;;;0.70;0.70;;;;;;;;;;5126130;27;20596;-79
2023/03/28 04:36:24;;;;;;;0.60;0.60;;;;;;;;;;5123534;27;20202;-79
2023/03/28 04:38:51;;;;;;;0.90;0.90;;;;;;;;;;5131852;27;20199;-79
2023/03/28 04:41:20;;;;;;;1.00;0.90;;;;;;;;;;5131486;27;20199;-79
2023/03/28 04:43:46;;;;;;;0.80;0.80;;;;;;;;;;5105525;27;20673;-80
2023/03/28 04:46:13;;;;;;;0.80;0.80;;;;;;;;;;5131925;27;20202;-80
2023/03/28 04:48:40;;;;;;;1.00;1.00;;;;;;;;;;5131476;27;20198;-79
2023/03/28 04:51:08;;;;;;;0.87;0.87;;;;;;;;;;5130862;27;20290;-80
2023/03/28 04:53:36;;;;;;;0.93;0.93;;;;;;;;;;5131591;27;20195;-79
2023/03/28 04:56:03;;;;;;;2.00;1.40;;;;;;;;;;5131394;27;20227;-79
2023/03/28 04:58:31;;;;;;;1.40;1.30;;;;;;;;;;5131440;27;20202;-79
2023/03/28 05:01:01;;;;;;;1.40;1.30;;;;;;;;;;5131543;27;20194;-79
2023/03/28 05:03:28;;;;;;;0.93;0.93;;;;;;;;;;5131469;27;20596;-79
2023/03/28 05:05:55;;;;;;;1.73;1.33;;;;;;;;;;5131663;28;20346;-79
2023/03/28 05:08:23;;;;;;;2.50;2.10;;;;;;;;;;5131501;28;20814;-79
2023/03/28 05:10:51;;;;;;;1.43;1.33;;;;;;;;;;5131019;28;20195;-81
2023/03/28 05:13:18;;;;;;;1.43;1.20;;;;;;;;;;5131052;28;20222;-80
2023/03/28 05:15:48;;;;;;;1.30;1.20;;;;;;;;;;5130713;28;20242;-79
2023/03/28 05:18:15;;;;;;;1.10;1.10;;;;;;;;;;5132009;28;20202;-80
2023/03/28 05:20:41;;;;;;;1.60;1.50;;;;;;;;;;5131329;28;20202;-80
2023/03/28 05:23:08;;;;;;;1.03;1.03;;;;;;;;;;5131312;28;20290;-80
2023/03/28 05:25:36;;;;;;;1.10;1.10;;;;;;;;;;5131669;28;20245;-80
2023/03/28 05:28:03;;;;;;;1.47;1.27;;;;;;;;;;5131748;28;20195;-80
2023/03/28 05:30:30;;;;;;;0.90;0.90;;;;;;;;;;5130548;28;20198;-80
2023/03/28 05:32:59;;;;;;;1.20;1.17;;;;;;;;;;5131552;28;20621;-79
2023/03/28 05:35:26;;;;;;;0.93;0.93;;;;;;;;;;5130604;28;20403;-80
2023/03/28 05:37:53;;;;;;;1.80;1.60;;;;;;;;;;5131500;28;20198;-80
2023/03/28 05:40:20;;;;;;;0.77;0.77;;;;;;;;;;5130912;28;20256;-80
2023/03/28 05:42:46;;;;;;;0.90;0.90;;;;;;;;;;5131457;28;20199;-80
2023/03/28 05:45:13;;;;;;;1.23;1.23;;;;;;;;;;5130695;28;20199;-80
2023/03/28 05:47:40;;;;;;;1.20;1.20;;;;;;;;;;5131479;28;20199;-80
2023/03/28 05:50:09;;;;;;;15.17;10.60;;;;;;;;;;5131036;28;20226;-80
2023/03/28 05:52:36;;;;;;;3.80;3.50;;;;;;;;;;5130817;28;20207;-80
2023/03/28 05:55:03;;;;;;;1.97;1.87;;;;;;;;;;5131143;28;20223;-79
2023/03/28 05:57:29;;;;;;;1.50;1.40;;;;;;;;;;5130962;28;20198;-80
2023/03/28 05:59:56;;;;;;;1.00;1.00;;;;;;;;;;5116770;28;20198;-80
2023/03/28 06:02:24;;;;;;;1.10;1.10;;;;;;;;;;5131143;28;20255;-80
2023/03/28 06:04:53;;;;;;;0.97;0.97;;;;;;;;;;5131240;28;20202;-80
2023/03/28 06:07:22;;;;;;;0.90;0.90;;;;;;;;;;5130668;28;20226;-80
2023/03/28 06:09:48;;;;;;;1.80;1.10;;;;;;;;;;5131021;28;20298;-80
2023/03/28 06:12:15;;;;;;;1.27;1.17;;;;;;;;;;5130031;28;20194;-80
2023/03/28 06:14:42;;;;;;;1.50;1.30;;;;;;;;;;5118652;27;20226;-81
2023/03/28 06:17:09;;;;;;;1.70;1.40;;;;;;;;;;5134281;27;20617;-80
2023/03/28 06:19:35;;;;;;;1.93;1.73;;;;;;;;;;5134629;27;20195;-80
2023/03/28 06:22:02;;;;;;;1.60;1.50;;;;;;;;;;5134507;27;20675;-80
2023/03/28 06:24:30;;;;;;;1.40;1.30;;;;;;;;;;5134882;27;20582;-80
2023/03/28 06:26:58;;;;;;;1.50;1.40;;;;;;;;;;5133674;27;20271;-80
2023/03/28 06:29:24;;;;;;;1.67;1.57;;;;;;;;;;5134185;27;20244;-80
2023/03/28 06:31:51;;;;;;;1.33;1.23;;;;;;;;;;5134020;27;20207;-80
2023/03/28 06:34:18;;;;;;;1.27;1.20;;;;;;;;;;5134123;27;20226;-80
2023/03/28 06:36:45;;;;;;;1.63;1.53;;;;;;;;;;5133834;27;20202;-80
2023/03/28 06:39:12;;;;;;;1.30;1.30;;;;;;;;;;5134416;27;20199;-80
2023/03/28 06:41:40;;;;;;;1.30;1.20;;;;;;;;;;5134047;27;20207;-80
2023/03/28 06:44:07;;;;;;;2.43;1.57;;;;;;;;;;5134096;27;20754;-80
2023/03/28 06:46:34;;;;;;;1.13;1.13;;;;;;;;;;5134216;27;20201;-80
2023/03/28 06:49:00;;;;;;;1.40;1.23;;;;;;;;;;5134064;27;20206;-80
2023/03/28 06:51:27;;;;;;;1.10;1.10;;;;;;;;;;5133222;27;20213;-80
2023/03/28 06:53:54;;;;;;;3.03;2.43;;;;;;;;;;5133708;27;20635;-80
2023/03/28 06:56:21;;;;;;;1.83;1.70;;;;;;;;;;5133434;27;20219;-80
2023/03/28 06:58:49;;;;;;;2.17;2.00;;;;;;;;;;5134042;27;20201;-80
2023/03/28 07:01:16;;;;;;;2.30;1.30;;;;;;;;;;5133479;27;20224;-80
2023/03/28 07:03:43;;;;;;;1.40;1.30;;;;;;;;;;5133715;27;20554;-80
2023/03/28 07:06:10;;;;;;;1.97;1.40;;;;;;;;;;5119931;27;20199;-80
2023/03/28 07:08:37;;;;;;;1.20;1.10;;;;;;;;;;5133689;27;20654;-80
2023/03/28 07:11:05;;;;;;;1.33;1.23;;;;;;;;;;5119731;27;20191;-80
2023/03/28 07:13:32;;;;;;;1.60;1.27;;;;;;;;;;5133290;27;20234;-80
2023/03/28 07:16:01;;;;;;;1.23;1.20;;;;;;;;;;5132973;27;20700;-80
2023/03/28 07:18:28;;;;;;;1.10;1.10;;;;;;;;;;5133682;27;20202;-80
2023/03/28 07:20:55;;;;;;;1.10;1.00;;;;;;;;;;5127571;27;20237;-80
2023/03/28 07:23:22;;;;;;;1.10;1.07;;;;;;;;;;5125325;27;20214;-80
2023/03/28 07:25:48;;;;;;;1.10;1.10;;;;;;;;;;5132431;27;20195;-80
2023/03/28 07:28:15;;;;;;;1.10;1.10;;;;;;;;;;5132483;27;20569;-80
2023/03/28 07:30:42;;;;;;;1.33;1.27;;;;;;;;;;5132761;27;20235;-80
2023/03/28 07:33:10;;;;;;;1.17;1.13;;;;;;;;;;5133521;27;20206;-80
2023/03/28 07:35:39;;;;;;;1.20;1.20;;;;;;;;;;5132915;27;20218;-80
2023/03/28 07:38:06;;;;;;;1.80;1.70;;;;;;;;;;5133302;27;20308;-80
2023/03/28 07:40:33;;;;;;;1.93;1.73;;;;;;;;;;5133479;27;20202;-80
2023/03/28 07:42:59;;;;;;;1.90;1.70;;;;;;;;;;5132963;27;20203;-80
2023/03/28 07:45:26;;;;;;;1.37;1.27;;;;;;;;;;5132755;27;20252;-80
2023/03/28 07:47:53;;;;;;;1.90;1.40;;;;;;;;;;5132760;27;20669;-80
2023/03/28 07:50:21;;;;;;;1.07;1.07;;;;;;;;;;5132822;27;20263;-80
2023/03/28 07:52:56;;;;;;;1.10;1.00;;;;;;;;;;5118764;27;20231;-81
2023/03/28 07:55:24;;;;;;;4.70;1.30;;;;;;;;;;5132985;27;20279;-81
2023/03/28 07:57:51;;;;;;;1.50;1.30;;;;;;;;;;5132616;27;20757;-80
2023/03/28 08:00:20;;;;;;;0.97;0.97;;;;;;;;;;5132620;27;20198;-80
2023/03/28 08:02:47;;;;;;;1.47;0.97;;;;;;;;;;5132037;27;20195;-80
2023/03/28 08:05:14;;;;;;;1.10;1.10;;;;;;;;;;5132906;27;20267;-81
2023/03/28 08:07:44;;;;;;;1.00;1.00;;;;;;;;;;5132146;27;20206;-80
2023/03/28 08:10:11;;;;;;;1.10;1.10;;;;;;;;;;5132684;27;20612;-80
2023/03/28 08:12:38;;;;;;;0.90;0.90;;;;;;;;;;5131714;27;20202;-80
2023/03/28 08:15:06;;;;;;;1.00;1.00;;;;;;;;;;5132579;27;20222;-80
2023/03/28 08:17:33;;;;;;;1.33;1.23;;;;;;;;;;5132047;27;20705;-80
2023/03/28 08:20:00;;;;;;;0.70;0.70;;;;;;;;;;5132345;27;20221;-80
2023/03/28 08:22:30;;;;;;;0.97;0.97;;;;;;;;;;5118133;27;20707;-80
2023/03/28 08:24:58;;;;;;;1.23;1.13;;;;;;;;;;5132212;27;20203;-80
2023/03/28 08:27:25;;;;;;;1.27;1.17;;;;;;;;;;5132062;27;20198;-80
2023/03/28 08:29:51;;;;;;;1.33;1.23;;;;;;;;;;5132576;27;20198;-80
2023/03/28 08:32:18;;;;;;;1.50;1.40;;;;;;;;;;5132347;27;20194;-80
2023/03/28 08:34:45;;;;;;;1.40;1.30;;;;;;;;;;5131838;27;20198;-81
2023/03/28 08:37:12;;;;;;;2.40;1.30;;;;;;;;;;5131664;27;20202;-80
2023/03/28 08:39:41;;;;;;;1.73;1.63;;;;;;;;;;5131848;27;20209;-80
2023/03/28 08:42:38;;;;;;;1.10;1.10;;;;;;;;;;5131587;27;20230;-80
2023/03/28 08:45:23;;;;;;;1.73;1.23;;;;;;;;;;5131844;27;20230;-81
2023/03/28 08:47:59;;;;;;;1.03;1.00;;;;;;;;;;5131587;27;20259;-81
2023/03/28 08:50:29;;;;;;;1.37;1.27;;;;;;;;;;5106809;27;20201;-80
2023/03/28 08:52:56;;;;;;;2.90;1.00;;;;;;;;;;5131150;27;20678;-78
2023/03/28 08:55:29;;;;;;;1.60;1.43;;;;;;;;;;5131376;27;20226;-81
2023/03/28 08:57:58;;;;;;;1.77;1.60;;;;;;;;;;5131168;27;20703;-80
2023/03/28 09:00:28;;;;;;;1.60;1.50;;;;;;;;;;5131424;27;20206;-81
2023/03/28 09:02:55;;;;;;;2.43;1.37;;;;;;;;;;5131173;28;20202;-80
2023/03/28 09:05:26;;;;;;;2.10;1.23;;;;;;;;;;5131815;28;20245;-80
2023/03/28 09:07:56;;;;;;;1.10;1.10;;;;;;;;;;5131546;28;20207;-80
2023/03/28 09:10:28;;;;;;;2.10;1.90;;;;;;;;;;5131551;28;20531;-80
2023/03/28 09:13:05;;;;;;;1.70;1.60;;;;;;;;;;5131332;28;20214;-80
2023/03/28 09:15:44;;;;;;;1.43;1.33;;;;;;;;;;5131095;28;20604;-80
2023/03/28 09:18:30;;;;;;;1.93;1.30;;;;;;;;;;5131100;28;20202;-80
2023/03/28 09:21:00;;;;;;;1.50;1.40;;;;;;;;;;5131028;28;20741;-80
2023/03/28 09:23:44;;;;;;;1.60;1.50;;;;;;;;;;5131671;28;20202;-80
2023/03/28 09:26:15;;;;;;;1.47;1.37;;;;;;;;;;5131270;28;20198;-80
2023/03/28 09:28:49;;;;;;;3.97;1.97;;;;;;;;;;5131721;28;20669;-80
2023/03/28 09:31:17;;;;;;;3.80;1.50;;;;;;;;;;5131327;28;20255;-80
2023/03/28 09:33:47;;;;;;;3.13;1.10;;;;;;;;;;5131415;28;20195;-80
2023/03/28 09:36:18;;;;;;;1.50;1.40;;;;;;;;;;5130694;28;20763;-80
2023/03/28 09:38:47;;;;;;;1.50;1.40;;;;;;;;;;5131166;28;20206;-80
2023/03/28 09:41:18;;;;;;;1.83;1.73;;;;;;;;;;5131540;28;20202;-80
2023/03/28 09:43:48;;;;;;;2.07;1.80;;;;;;;;;;5131432;28;20259;-80
2023/03/28 09:46:19;;;;;;;6.90;2.57;;;;;;;;;;5130798;28;20198;-80
2023/03/28 09:48:46;;;;;;;2.10;1.90;;;;;;;;;;5131948;27;20199;-80
2023/03/28 09:51:15;;;;;;;1.43;1.30;;;;;;;;;;5134001;27;20230;-81
2023/03/28 09:53:42;;;;;;;1.50;1.40;;;;;;;;;;5135304;27;20218;-80
2023/03/28 09:56:17;;;;;;;2.17;1.80;;;;;;;;;;5134795;27;20226;-80
2023/03/28 09:58:50;;;;;;;2.23;1.40;;;;;;;;;;5135136;27;20194;-80
2023/03/28 10:01:42;;;;;;;3.13;1.47;;;;;;;;;;5134726;27;20199;-80
2023/03/28 10:04:10;;;;;;;4.37;1.70;;;;;;;;;;5119467;27;21177;-80
2023/03/28 10:06:38;;;;;;;1.73;1.53;;;;;;;;;;5134468;27;20669;-80
2023/03/28 10:09:10;;;;;;;1.57;1.47;;;;;;;;;;5135150;27;20281;-80
2023/03/28 10:11:53;;;;;;;1.40;1.30;;;;;;;;;;5134497;27;20190;-80
2023/03/28 10:14:32;;;;;;;3.60;1.70;;;;;;;;;;5134316;27;20218;-82
2023/03/28 10:17:01;;;;;;;1.47;1.37;;;;;;;;;;5134362;27;20218;-80
2023/03/28 10:19:32;;;;;;;1.10;1.10;;;;;;;;;;5134741;27;20191;-80
2023/03/28 10:22:01;;;;;;;1.67;1.57;;;;;;;;;;5133933;27;20194;-81
2023/03/28 10:24:31;;;;;;;1.73;1.23;;;;;;;;;;5134537;27;20206;-80
2023/03/28 10:26:58;;;;;;;1.30;1.20;;;;;;;;;;5133929;27;20195;-81
2023/03/28 10:29:27;;;;;;;1.30;1.20;;;;;;;;;;5134571;27;20206;-80
2023/03/28 10:31:55;;;;;;;2.13;1.23;;;;;;;;;;5134516;27;20206;-81
2023/03/28 10:34:26;;;;;;;1.80;1.40;;;;;;;;;;5134206;27;20195;-81
2023/03/28 10:36:53;;;;;;;1.87;1.33;;;;;;;;;;5133706;27;20283;-81
2023/03/28 10:39:22;;;;;;;1.03;1.00;;;;;;;;;;5134615;27;20638;-81
2023/03/28 10:41:54;;;;;;;1.50;1.40;;;;;;;;;;5134214;27;20202;-81
2023/03/28 10:44:29;;;;;;;1.40;0.93;;;;;;;;;;5134761;27;20199;-80
2023/03/28 10:47:16;;;;;;;1.20;1.10;;;;;;;;;;5133977;27;20213;-81
2023/03/28 10:49:44;;;;;;;1.77;1.20;;;;;;;;;;5133992;27;20264;-81
2023/03/28 10:52:17;;;;;;;1.37;0.93;;;;;;;;;;5133803;27;20570;-81
2023/03/28 10:54:54;;;;;;;3.20;1.40;;;;;;;;;;5133426;27;20198;-81
2023/03/28 10:57:26;;;;;;;2.17;1.40;;;;;;;;;;5133717;27;20229;-80
2023/03/28 10:59:59;;;;;;;2.07;1.10;;;;;;;;;;5133921;27;20276;-81
2023/03/28 11:02:52;;;;;;;1.23;1.13;;;;;;;;;;5133163;27;20207;-81
2023/03/28 11:05:30;;;;;;;2.30;1.20;;;;;;;;;;5114203;27;20634;-79
2023/03/28 11:08:01;;;;;;;2.10;1.60;;;;;;;;;;5133283;27;20234;-79
2023/03/28 11:10:35;;;;;;;1.07;1.07;;;;;;;;;;5133501;27;20255;-79
2023/03/28 11:13:10;;;;;;;1.43;1.37;;;;;;;;;;5133557;27;20222;-78
2023/03/28 11:15:41;;;;;;;2.13;1.50;;;;;;;;;;5133076;27;20206;-79
2023/03/28 11:18:20;;;;;;;1.23;1.13;;;;;;;;;;5133966;27;20206;-79
2023/03/28 11:20:51;;;;;;;1.10;1.00;;;;;;;;;;5133054;27;20285;-79
2023/03/28 11:23:53;;;;;;;2.47;2.10;;;;;;;;;;5133539;27;20202;-80
2023/03/28 11:26:23;;;;;;;2.30;2.10;;;;;;;;;;5110469;27;20251;-80
2023/03/28 11:29:01;;;;;;;5.83;1.90;;;;;;;;;;5133478;27;20199;-80
2023/03/28 11:31:33;;;;;;;1.70;1.23;;;;;;;;;;5133248;27;20244;-80
2023/03/28 11:34:05;;;;;;;1.70;1.60;;;;;;;;;;5133723;27;20225;-79
2023/03/28 11:36:36;;;;;;;1.53;1.30;;;;;;;;;;5132644;27;20250;-80
2023/03/28 11:39:07;;;;;;;1.70;1.60;;;;;;;;;;5132725;27;20256;-80
2023/03/28 11:41:36;;;;;;;3.30;1.47;;;;;;;;;;5132605;27;20195;-80
2023/03/28 11:44:05;;;;;;;2.37;2.10;;;;;;;;;;5132973;27;20207;-80
2023/03/28 11:46:33;;;;;;;2.43;2.23;;;;;;;;;;5132292;27;20255;-80
2023/03/28 11:49:11;;;;;;;3.40;2.07;;;;;;;;;;5133531;27;20215;-80
2023/03/28 11:51:42;;;;;;;1.63;1.53;;;;;;;;;;5132875;27;20634;-80
2023/03/28 11:54:12;;;;;;;1.37;1.27;;;;;;;;;;5132641;27;20247;-80
2023/03/28 11:56:47;;;;;;;1.00;1.00;;;;;;;;;;5105024;27;20219;-80
2023/03/28 11:59:17;;;;;;;1.40;1.30;;;;;;;;;;5132592;27;20205;-79
2023/03/28 12:01:47;;;;;;;1.63;1.53;;;;;;;;;;5132685;27;20210;-80
2023/03/28 12:04:20;;;;;;;1.40;1.30;;;;;;;;;;5131948;27;20202;-80
2023/03/28 12:06:52;;;;;;;2.13;1.53;;;;;;;;;;5132323;27;20206;-80
2023/03/28 12:09:26;;;;;;;2.93;1.93;;;;;;;;;;5118775;27;20748;-80
2023/03/28 12:11:57;;;;;;;3.90;2.90;;;;;;;;;;5132230;27;20255;-80
2023/03/28 12:14:33;;;;;;;5.57;2.67;;;;;;;;;;5126470;27;20227;-80
2023/03/28 12:17:02;;;;;;;20.73;11.90;;;;;;;;;;5125584;27;20290;-80
2023/03/28 12:19:33;;;;;;;23.97;14.83;;;;;;;;;;5132480;27;20217;-80
2023/03/28 12:22:04;;;;;;;17.00;10.53;;;;;;;;;;5131887;27;20248;-80
2023/03/28 12:24:39;;;;;;;15.03;9.23;;;;;;;;;;5132396;27;20633;-80
2023/03/28 12:27:08;;;;;;;6.30;2.47;;;;;;;;;;5131708;27;20199;-81
2023/03/28 12:29:40;;;;;;;4.80;3.27;;;;;;;;;;5131774;27;20209;-80
2023/03/28 12:32:20;;;;;;;2.00;1.87;;;;;;;;;;5117939;27;20195;-80
2023/03/28 12:34:52;;;;;;;7.60;4.60;;;;;;;;;;5132418;27;20202;-79
2023/03/28 12:37:23;;;;;;;3.63;2.73;;;;;;;;;;5132046;27;20287;-80
2023/03/28 12:39:55;;;;;;;3.97;3.20;;;;;;;;;;5131746;27;20226;-80
2023/03/28 12:42:23;;;;;;;3.77;3.40;;;;;;;;;;5131924;27;20199;-80
2023/03/28 12:44:52;;;;;;;4.20;2.57;;;;;;;;;;5131763;27;20297;-79
2023/03/28 12:47:22;;;;;;;1.93;1.83;;;;;;;;;;5131765;27;20211;-80
2023/03/28 12:49:52;;;;;;;2.10;1.57;;;;;;;;;;5132280;27;20221;-79
2023/03/28 12:52:23;;;;;;;2.20;1.70;;;;;;;;;;5132047;27;20221;-80
2023/03/28 12:54:56;;;;;;;3.13;1.57;;;;;;;;;;5131573;27;20210;-79
2023/03/28 12:57:43;;;;;;;1.53;1.43;;;;;;;;;;5131283;27;20650;-79
2023/03/28 13:00:26;;;;;;;3.00;1.70;;;;;;;;;;5108725;27;20206;-80
2023/03/28 13:03:06;;;;;;;3.13;1.83;;;;;;;;;;5129546;28;20664;-80
2023/03/28 13:05:42;;;;;;;2.47;1.20;;;;;;;;;;5131954;28;20256;-80
2023/03/28 13:08:15;;;;;;;1.93;1.70;;;;;;;;;;5131798;28;20202;-80
2023/03/28 13:10:45;;;;;;;1.70;1.10;;;;;;;;;;5130549;28;20203;-80
2023/03/28 13:13:18;;;;;;;1.47;1.37;;;;;;;;;;5131944;28;20223;-80
2023/03/28 13:16:02;;;;;;;1.40;1.30;;;;;;;;;;5131270;28;20198;-80
2023/03/28 13:18:31;;;;;;;1.70;1.60;;;;;;;;;;5131608;28;20263;-80
2023/03/28 13:21:02;;;;;;;1.87;1.40;;;;;;;;;;5131104;28;20287;-80
2023/03/28 13:23:36;;;;;;;1.50;1.40;;;;;;;;;;5131692;27;20251;-79
2023/03/28 13:26:03;;;;;;;1.43;1.33;;;;;;;;;;5109039;27;20210;-80
2023/03/28 13:28:32;;;;;;;1.53;1.43;;;;;;;;;;5135645;27;20215;-80
2023/03/28 13:31:11;;;;;;;1.50;1.40;;;;;;;;;;5135482;27;20198;-80
2023/03/28 13:33:39;;;;;;;1.50;1.40;;;;;;;;;;5135437;27;20190;-80
2023/03/28 13:36:18;;;;;;;1.63;1.53;;;;;;;;;;5135638;27;20230;-80
2023/03/28 13:38:47;;;;;;;4.87;1.40;;;;;;;;;;5134921;27;20195;-80
2023/03/28 13:41:34;;;;;;;1.20;1.10;;;;;;;;;;5135547;27;20195;-79
2023/03/28 13:44:04;;;;;;;1.60;1.50;;;;;;;;;;5111841;27;20252;-81
2023/03/28 13:46:33;;;;;;;1.90;1.80;;;;;;;;;;5118938;27;20203;-79
2023/03/28 13:49:05;;;;;;;1.40;1.30;;;;;;;;;;5124922;27;20255;-79
2023/03/28 13:51:38;;;;;;;1.10;1.10;;;;;;;;;;5134091;27;20259;-81
2023/03/28 13:54:05;;;;;;;1.70;1.60;;;;;;;;;;5135175;27;20259;-79
2023/03/28 13:56:33;;;;;;;2.30;1.90;;;;;;;;;;5134369;27;20199;-81
2023/03/28 13:59:04;;;;;;;3.47;2.73;;;;;;;;;;5134980;27;20206;-79
2023/03/28 14:01:36;;;;;;;2.47;2.00;;;;;;;;;;5121246;27;20194;-79
2023/03/28 14:04:09;;;;;;;2.13;1.77;;;;;;;;;;5135541;27;20202;-81
2023/03/28 14:06:41;;;;;;;8.60;5.70;;;;;;;;;;5108479;27;20194;-79
2023/03/28 14:09:14;;;;;;;3.13;2.40;;;;;;;;;;5134667;27;20221;-80
2023/03/28 14:11:41;;;;;;;5.07;3.50;;;;;;;;;;5134938;27;20277;-79
2023/03/28 14:14:12;;;;;;;5.27;3.40;;;;;;;;;;5134951;27;20270;-79
2023/03/28 14:16:39;;;;;;;5.13;2.30;;;;;;;;;;5134166;27;20202;-79
2023/03/28 14:19:07;;;;;;;4.73;3.43;;;;;;;;;;5130560;27;20286;-79
2023/03/28 14:21:34;;;;;;;4.93;2.70;;;;;;;;;;5124976;27;20286;-80
2023/03/28 14:24:05;;;;;;;2.63;2.33;;;;;;;;;;5134927;27;20203;-79
2023/03/28 14:26:34;;;;;;;2.90;2.00;;;;;;;;;;5134717;27;20263;-79
2023/03/28 14:29:04;;;;;;;2.57;2.37;;;;;;;;;;5134373;27;20209;-79
2023/03/28 14:31:32;;;;;;;3.23;2.50;;;;;;;;;;5134429;27;20203;-79
2023/03/28 14:33:59;;;;;;;3.97;2.50;;;;;;;;;;5134111;27;20634;-79
2023/03/28 14:36:30;;;;;;;4.07;2.53;;;;;;;;;;5133578;27;20203;-79
2023/03/28 14:39:09;;;;;;;2.13;2.03;;;;;;;;;;5134490;27;20241;-79
2023/03/28 14:41:36;;;;;;;5.37;2.50;;;;;;;;;;5134293;27;20285;-79
2023/03/28 14:44:05;;;;;;;1.80;1.67;;;;;;;;;;5134619;27;20203;-79
2023/03/28 14:46:32;;;;;;;2.40;2.20;;;;;;;;;;5133570;27;20198;-79
2023/03/28 14:49:01;;;;;;;2.87;2.23;;;;;;;;;;5134561;27;20281;-78
2023/03/28 14:51:28;;;;;;;2.47;2.27;;;;;;;;;;5133911;27;20753;-79
2023/03/28 14:53:56;;;;;;;1.60;1.50;;;;;;;;;;5133645;27;20298;-79
2023/03/28 14:56:26;;;;;;;2.50;2.27;;;;;;;;;;5133642;27;20202;-79
2023/03/28 14:58:55;;;;;;;3.30;3.00;;;;;;;;;;5133975;27;20777;-78
2023/03/28 15:01:23;;;;;;;3.03;2.30;;;;;;;;;;5133417;27;20578;-79
2023/03/28 15:03:52;;;;;;;2.60;2.17;;;;;;;;;;5134066;27;20634;-79